Time;durP1;ratioP1;P1;durP2;ratioP2;P2;SDS_P1;SDS_P2;PMS_P1;PMS_P2;Temp;Humidity;BMP_temperature;BMP_pressure;BME280_temperature;BME280_humidity;BME280_pressure;Samples;Min_cycle;Max_cycle;Signal;HPM_P1;HPM_P2
2022/02/06 00:01:16;;;;;;;1.80;0.97;;;;;;;-3.78;84.83;98291.19;6248547;28;20745;-72
2022/02/06 00:04:27;;;;;;;2.07;0.80;;;;;;;-3.77;84.17;98282.59;6243179;28;20223;-71
2022/02/06 00:07:36;;;;;;;0.97;0.70;;;;;;;-3.81;84.25;98274.94;6250992;28;20231;-72
2022/02/06 00:10:41;;;;;;;2.53;0.90;;;;;;;-3.85;84.36;98274.13;6251616;28;20523;-72
2022/02/06 00:13:47;;;;;;;1.70;0.77;;;;;;;-3.85;84.22;98261.22;6238905;28;20258;-71
2022/02/06 00:16:57;;;;;;;2.97;0.80;;;;;;;-3.90;84.40;98257.88;6249846;28;20219;-72
2022/02/06 00:20:08;;;;;;;3.20;0.80;;;;;;;-3.90;84.70;98252.72;6233974;28;20242;-72
2022/02/06 00:23:27;;;;;;;1.40;0.60;;;;;;;-3.92;84.52;98253.59;6251405;28;20230;-71
2022/02/06 00:26:53;;;;;;;1.70;0.57;;;;;;;-3.96;84.33;98250.19;6227436;28;20236;-72
2022/02/06 00:30:16;;;;;;;1.20;0.80;;;;;;;-3.98;84.88;98259.66;6250747;28;20318;-72
2022/02/06 00:40:05;;;;;;;2.83;1.40;;;;;;;-3.97;84.57;98253.66;6256009;28;20296;-72
2022/02/06 00:43:18;;;;;;;1.97;1.10;;;;;;;-4.00;84.77;98252.84;6275893;28;20245;-72
2022/02/06 00:46:26;;;;;;;1.63;0.50;;;;;;;-3.92;84.92;98251.03;6256833;28;20230;-72
2022/02/06 00:49:36;;;;;;;1.50;0.70;;;;;;;-3.94;84.53;98239.88;6240723;28;20311;-72
2022/02/06 00:52:59;;;;;;;2.47;0.80;;;;;;;-3.98;84.85;98246.78;6256637;28;20234;-72
2022/02/06 00:56:11;;;;;;;1.23;0.70;;;;;;;-3.99;84.56;98237.34;6259278;28;20321;-72
2022/02/06 00:59:25;;;;;;;0.97;0.80;;;;;;;-3.97;85.16;98235.59;6274951;28;20223;-72
2022/02/06 01:02:36;;;;;;;4.00;1.27;;;;;;;-3.99;85.11;98229.59;6275428;28;20226;-72
2022/02/06 01:05:51;;;;;;;1.03;0.83;;;;;;;-3.97;85.13;98233.03;6257423;28;20979;-72
2022/02/06 01:09:04;;;;;;;1.27;0.77;;;;;;;-3.96;85.23;98224.41;6275070;28;20708;-72
2022/02/06 01:12:18;;;;;;;1.50;0.90;;;;;;;-3.94;85.04;98235.56;6258785;28;20279;-71
2022/02/06 01:15:34;;;;;;;2.10;0.70;;;;;;;-3.98;84.55;98225.31;6262662;28;20242;-71
2022/02/06 01:19:04;;;;;;;1.20;0.60;;;;;;;-4.00;85.24;98220.19;6243219;28;20230;-73
2022/02/06 01:22:19;;;;;;;2.53;0.60;;;;;;;-4.05;85.34;98215.97;6256316;28;20233;-71
2022/02/06 01:25:44;;;;;;;1.23;0.80;;;;;;;-4.06;85.32;98206.53;6279952;28;20227;-71
2022/02/06 01:29:06;;;;;;;3.00;0.67;;;;;;;-4.06;84.63;98199.66;6263268;28;20226;-71
2022/02/06 01:32:18;;;;;;;1.30;0.53;;;;;;;-4.08;85.51;98193.66;6265543;28;20427;-72
2022/02/06 01:35:42;;;;;;;0.70;0.50;;;;;;;-4.11;84.99;98186.84;6268741;28;20241;-72
2022/02/06 01:42:16;;;;;;;2.33;0.73;;;;;;;-4.11;85.18;98181.69;6276746;28;20441;-73
2022/02/06 01:45:30;;;;;;;2.40;0.70;;;;;;;-4.11;85.34;98176.53;6282359;28;20222;-71
2022/02/06 02:03:15;;;;;;;1.53;0.50;;;;;;;-4.14;85.15;98137.06;6251883;28;20239;-72
2022/02/06 02:06:53;;;;;;;1.33;0.60;;;;;;;-4.16;84.64;98136.22;6254046;28;20223;-72
2022/02/06 02:23:52;;;;;;;0.77;0.50;;;;;;;-4.14;84.95;98137.06;6252572;28;20392;-72
2022/02/06 02:30:52;;;;;;;1.03;0.60;;;;;;;-4.14;85.25;98122.47;6276533;28;20241;-71
2022/02/06 02:44:58;;;;;;;1.97;0.40;;;;;;;-4.17;84.99;98096.72;6253092;28;20346;-72
2022/02/06 02:48:07;;;;;;;0.60;0.60;;;;;;;-4.18;85.48;98084.72;6252626;28;20215;-73
2022/02/06 02:51:14;;;;;;;0.90;0.60;;;;;;;-4.17;85.01;98093.28;6253289;28;20215;-71
2022/02/06 02:54:29;;;;;;;0.47;0.40;;;;;;;-4.19;85.21;98093.31;6252074;28;20224;-72
2022/02/06 02:57:48;;;;;;;0.60;0.50;;;;;;;-4.18;84.66;98094.16;6253536;28;20227;-71
2022/02/06 03:01:28;;;;;;;1.90;0.60;;;;;;;-4.16;84.95;98090.69;6252821;28;20702;-72
2022/02/06 03:04:49;;;;;;;0.43;0.40;;;;;;;-4.15;85.00;98089.84;6252523;28;20226;-72
2022/02/06 03:08:03;;;;;;;0.63;0.50;;;;;;;-4.15;85.12;98084.69;6252315;28;20246;-72
2022/02/06 03:11:11;;;;;;;1.03;0.50;;;;;;;-4.14;84.48;98088.97;6250646;28;20227;-71
2022/02/06 03:14:28;;;;;;;2.27;0.80;;;;;;;-4.14;85.15;98086.38;6250544;28;20314;-72
2022/02/06 03:17:46;;;;;;;1.97;0.47;;;;;;;-4.14;84.61;98078.66;6252997;28;20276;-72
2022/02/06 03:21:00;;;;;;;0.93;0.50;;;;;;;-4.08;84.82;98075.13;6251057;28;20361;-72
2022/02/06 03:27:28;;;;;;;0.40;0.40;;;;;;;-4.05;84.73;98074.22;6251469;28;20223;-72
2022/02/06 03:30:43;;;;;;;2.87;0.57;;;;;;;-4.04;84.96;98078.50;6252454;28;20231;-71
2022/02/06 03:33:50;;;;;;;2.73;0.53;;;;;;;-4.02;85.17;98081.91;6250889;28;20231;-71
2022/02/06 03:36:59;;;;;;;1.63;0.63;;;;;;;-4.02;85.21;98076.75;6251625;28;20250;-72
2022/02/06 03:40:18;;;;;;;1.27;0.57;;;;;;;-4.04;84.89;98071.63;6255048;28;20238;-72
2022/02/06 03:47:10;;;;;;;0.60;0.60;;;;;;;-4.01;85.28;98070.72;6275239;28;20223;-73
2022/02/06 03:50:32;;;;;;;3.13;0.60;;;;;;;-3.97;84.47;98051.75;6275880;28;20223;-72
2022/02/06 03:53:42;;;;;;;1.30;0.50;;;;;;;-4.00;84.88;98047.50;6275639;28;20714;-73
2022/02/06 03:56:53;;;;;;;0.50;0.50;;;;;;;-3.99;84.92;98038.88;6273961;28;20231;-72
2022/02/06 04:00:06;;;;;;;0.70;0.60;;;;;;;-3.96;85.60;98028.53;6242376;28;20348;-72
2022/02/06 04:03:25;;;;;;;0.60;0.50;;;;;;;-3.92;85.10;98027.59;6276489;28;20234;-71
2022/02/06 04:06:31;;;;;;;3.33;1.60;;;;;;;-3.88;84.78;98012.91;6257451;28;20218;-72
2022/02/06 04:09:49;;;;;;;2.73;1.60;;;;;;;-3.91;85.12;97998.38;6258028;28;20260;-72
2022/02/06 04:12:56;;;;;;;2.83;1.17;;;;;;;-3.90;85.23;97996.66;6257392;28;20244;-72
2022/02/06 04:16:04;;;;;;;2.70;0.87;;;;;;;-3.90;85.18;97994.94;6257184;28;20718;-72
2022/02/06 04:19:20;;;;;;;1.43;0.80;;;;;;;-3.88;85.31;97993.16;6257599;28;20276;-71
2022/02/06 04:22:27;;;;;;;1.90;1.20;;;;;;;-3.88;85.27;97992.28;6258844;28;20234;-72
2022/02/06 04:25:37;;;;;;;0.87;0.70;;;;;;;-3.88;85.64;97989.72;6274302;28;20723;-72
2022/02/06 04:29:07;;;;;;;1.77;1.20;;;;;;;-3.89;85.22;97982.88;6275709;28;20233;-71
2022/02/06 04:32:17;;;;;;;3.07;1.73;;;;;;;-3.92;85.29;97986.38;6275051;28;20714;-72
2022/02/06 04:35:31;;;;;;;3.43;1.50;;;;;;;-3.91;85.25;97985.50;6256973;28;20238;-72
2022/02/06 04:46:10;;;;;;;4.50;2.83;;;;;;;-3.78;85.55;97981.78;6275630;28;20227;-72
2022/02/06 05:31:05;;;;;;;3.73;1.40;;;;;;;-3.50;84.84;97951.19;6264307;28;20230;-73
2022/02/06 05:34:16;;;;;;;2.50;0.77;;;;;;;-3.45;85.26;97954.50;6280585;28;20230;-72
2022/02/06 05:37:28;;;;;;;2.07;0.80;;;;;;;-3.43;84.91;97947.59;6278654;28;20649;-72
2022/02/06 05:40:37;;;;;;;1.83;1.37;;;;;;;-3.41;85.70;97944.97;6253229;28;20321;-72
2022/02/06 05:43:47;;;;;;;3.30;0.80;;;;;;;-3.37;85.47;97944.00;6237411;28;20227;-71
2022/02/06 05:46:58;;;;;;;3.10;1.20;;;;;;;-3.37;85.52;97944.88;6253317;28;20583;-71
2022/02/06 05:50:08;;;;;;;4.23;1.17;;;;;;;-3.30;85.12;97937.00;6252987;28;20282;-71
2022/02/06 05:53:17;;;;;;;1.50;1.00;;;;;;;-3.26;85.72;97936.91;6255125;28;20223;-72
2022/02/06 05:56:24;;;;;;;2.27;1.03;;;;;;;-3.22;85.24;97932.53;6253214;28;20729;-73
2022/02/06 05:59:33;;;;;;;1.67;1.07;;;;;;;-3.17;85.97;97921.22;6254449;28;20246;-72
2022/02/06 06:02:49;;;;;;;0.97;0.70;;;;;;;-3.12;85.72;97927.13;6253625;28;20245;-72
2022/02/06 06:06:03;;;;;;;2.40;0.80;;;;;;;-3.08;85.95;97922.75;6255155;28;20227;-72
2022/02/06 06:09:16;;;;;;;1.07;0.77;;;;;;;-3.05;85.59;97914.94;6254930;28;20699;-72
2022/02/06 06:12:26;;;;;;;4.83;0.87;;;;;;;-3.01;85.72;97914.84;6236627;28;20223;-72
2022/02/06 06:15:39;;;;;;;2.50;0.80;;;;;;;-2.94;85.36;97912.97;6254067;28;20235;-72
2022/02/06 06:18:49;;;;;;;2.33;0.70;;;;;;;-2.91;85.81;97912.91;6254960;28;20249;-72
2022/02/06 06:22:07;;;;;;;0.70;0.50;;;;;;;-2.85;85.53;97910.16;6251660;28;20281;-72
2022/02/06 06:25:15;;;;;;;2.13;0.67;;;;;;;-2.80;85.74;97907.47;6250106;28;20338;-72
2022/02/06 06:28:25;;;;;;;1.63;0.90;;;;;;;-2.72;85.59;97911.56;6252897;28;20232;-72
2022/02/06 06:31:32;;;;;;;1.10;0.60;;;;;;;-2.68;85.45;97894.25;6254973;28;20243;-72
2022/02/06 06:34:54;;;;;;;1.67;0.43;;;;;;;-2.60;85.63;97900.09;6259397;28;20240;-72
2022/02/06 06:38:04;;;;;;;3.63;0.73;;;;;;;-2.52;85.55;97894.75;6252026;28;20281;-72
2022/02/06 06:41:19;;;;;;;1.40;0.63;;;;;;;-2.43;85.44;97899.69;6266628;28;20231;-73
2022/02/06 06:44:37;;;;;;;2.63;0.90;;;;;;;-2.38;84.87;97890.91;6278505;28;20234;-73
2022/02/06 06:47:54;;;;;;;1.40;0.70;;;;;;;-2.31;84.92;97887.31;6276944;28;20222;-73
2022/02/06 06:51:05;;;;;;;1.13;0.57;;;;;;;-2.20;84.89;97894.78;6260936;28;20227;-72
2022/02/06 06:54:22;;;;;;;3.20;0.83;;;;;;;-2.11;84.64;97893.69;6258983;28;20219;-71
2022/02/06 06:57:39;;;;;;;3.03;1.50;;;;;;;-2.01;84.53;97889.97;6259630;28;20226;-72
2022/02/06 07:01:09;;;;;;;3.57;1.87;;;;;;;-1.93;84.16;97886.28;6277295;28;20219;-72
2022/02/06 07:04:20;;;;;;;1.30;0.73;;;;;;;-1.84;84.07;97881.72;6278224;28;20556;-73
2022/02/06 07:07:34;;;;;;;1.63;0.70;;;;;;;-1.75;84.07;97882.31;6259141;28;20241;-71
2022/02/06 07:10:41;;;;;;;0.83;0.60;;;;;;;-1.66;84.15;97887.22;6244367;28;20227;-72
2022/02/06 07:13:46;;;;;;;1.03;0.50;;;;;;;-1.58;83.96;97879.25;6257502;28;20222;-72
2022/02/06 07:16:56;;;;;;;1.53;0.63;;;;;;;-1.49;84.18;97882.41;6258247;28;20238;-72
2022/02/06 07:20:06;;;;;;;0.50;0.50;;;;;;;-1.38;84.00;97884.69;6258708;28;20273;-72
2022/02/06 07:23:19;;;;;;;2.77;0.70;;;;;;;-1.27;83.58;97884.38;6276770;28;20230;-71
2022/02/06 07:26:29;;;;;;;2.00;0.60;;;;;;;-1.12;82.86;97889.09;6244173;28;20679;-71
2022/02/06 07:29:42;;;;;;;0.60;0.50;;;;;;;-0.99;82.33;97885.22;6275678;28;20238;-72
2022/02/06 07:33:01;;;;;;;0.63;0.40;;;;;;;-0.78;82.09;97870.75;6257691;28;20296;-72
2022/02/06 07:36:12;;;;;;;0.93;0.43;;;;;;;-0.56;80.75;97879.53;6258767;28;20392;-72
2022/02/06 07:39:28;;;;;;;1.70;0.47;;;;;;;0.12;74.38;97868.53;6279989;28;20226;-71
2022/02/06 07:42:41;;;;;;;1.00;0.70;;;;;;;0.55;71.34;97870.41;6216259;28;20287;-72
2022/02/06 07:46:01;;;;;;;1.27;0.67;;;;;;;1.28;67.36;97870.16;6225345;28;20715;-72
2022/02/06 07:49:09;;;;;;;4.40;0.80;;;;;;;1.93;61.94;97873.53;6227785;28;20228;-73
2022/02/06 07:52:29;;;;;;;1.30;0.50;;;;;;;2.34;60.77;97871.72;6228091;28;20235;-72
2022/02/06 07:55:41;;;;;;;0.83;0.47;;;;;;;2.57;59.96;97866.34;6227126;28;20243;-73
2022/02/06 07:58:50;;;;;;;1.30;0.77;;;;;;;2.88;55.87;97879.66;6226287;28;20378;-74
2022/02/06 08:01:57;;;;;;;1.70;0.60;;;;;;;2.95;58.94;97869.78;6225631;28;20279;-72
2022/02/06 08:05:06;;;;;;;0.90;0.53;;;;;;;2.96;57.43;97858.44;6225198;28;20237;-72
2022/02/06 08:08:17;;;;;;;1.53;0.80;;;;;;;3.16;56.75;97870.53;6200502;28;20241;-72
2022/02/06 08:11:23;;;;;;;1.23;0.60;;;;;;;3.17;58.24;97859.19;6224553;28;20316;-73
2022/02/06 08:18:01;;;;;;;0.83;0.60;;;;;;;3.46;56.33;97865.63;6224826;28;20234;-73
2022/02/06 08:21:12;;;;;;;1.80;0.80;;;;;;;3.52;56.33;97854.88;6226927;28;20242;-73
2022/02/06 08:24:24;;;;;;;2.93;0.80;;;;;;;3.65;55.29;97848.97;6208812;28;20270;-73
2022/02/06 08:27:35;;;;;;;1.63;0.60;;;;;;;3.74;55.57;97849.44;6225825;28;20303;-73
2022/02/06 08:30:47;;;;;;;1.87;0.67;;;;;;;3.72;57.97;97858.19;6223463;28;20223;-72
2022/02/06 08:33:59;;;;;;;1.60;0.50;;;;;;;3.71;57.69;97846.03;6224051;28;20236;-73
2022/02/06 08:37:08;;;;;;;0.90;0.40;;;;;;;3.77;58.67;97834.47;6226426;28;20726;-72
2022/02/06 08:40:18;;;;;;;0.67;0.50;;;;;;;3.80;58.98;97843.88;6234743;28;20231;-73
2022/02/06 08:43:26;;;;;;;2.30;0.47;;;;;;;3.89;53.92;97835.63;6258559;28;20245;-74
2022/02/06 08:46:36;;;;;;;2.60;0.80;;;;;;;4.09;53.88;97832.81;6258095;28;20228;-72
2022/02/06 08:49:57;;;;;;;0.50;0.40;;;;;;;4.28;54.00;97823.09;6243403;28;20241;-72
2022/02/06 08:53:09;;;;;;;2.17;0.53;;;;;;;4.25;55.28;97825.88;6274992;28;20243;-73
2022/02/06 08:56:21;;;;;;;0.50;0.40;;;;;;;4.21;53.82;97816.50;6256190;28;20240;-73
2022/02/06 08:59:33;;;;;;;0.80;0.50;;;;;;;4.19;53.70;97810.53;6274198;28;20277;-73
2022/02/06 09:02:51;;;;;;;1.63;0.57;;;;;;;4.13;52.57;97816.06;6276177;28;20705;-73
2022/02/06 09:05:59;;;;;;;1.30;0.50;;;;;;;4.17;50.71;97803.69;6275826;28;20229;-73
2022/02/06 09:09:10;;;;;;;1.27;0.50;;;;;;;4.13;51.05;97792.56;6240284;28;20603;-72
2022/02/06 09:12:20;;;;;;;0.90;0.50;;;;;;;4.08;50.30;97782.38;6274104;28;20207;-73
2022/02/06 09:15:31;;;;;;;1.23;0.60;;;;;;;4.08;49.58;97786.75;6255464;28;20316;-72
2022/02/06 09:18:42;;;;;;;1.97;0.63;;;;;;;4.13;50.01;97763.81;6274814;28;20229;-72
2022/02/06 09:21:55;;;;;;;1.37;0.40;;;;;;;4.22;50.05;97752.03;6275334;28;20311;-72
2022/02/06 09:25:03;;;;;;;0.97;0.33;;;;;;;4.82;48.73;97740.81;6273503;28;20712;-73
2022/02/06 09:28:11;;;;;;;0.70;0.57;;;;;;;5.33;46.38;97736.16;6258322;28;20622;-73
2022/02/06 09:31:28;;;;;;;2.00;0.50;;;;;;;5.80;47.12;97727.25;6256927;28;20335;-71
2022/02/06 09:37:53;;;;;;;1.63;0.47;;;;;;;6.47;44.11;97734.47;6257195;28;20235;-72
2022/02/06 09:41:06;;;;;;;1.40;0.40;;;;;;;6.82;42.90;97752.34;6248251;28;20715;-72
2022/02/06 09:44:16;;;;;;;2.40;0.43;;;;;;;7.11;42.84;97746.06;6250042;28;20280;-72
2022/02/06 09:47:30;;;;;;;0.50;0.30;;;;;;;7.00;40.68;97743.28;6255101;28;20231;-72
2022/02/06 09:50:44;;;;;;;0.30;0.17;;;;;;;7.21;42.30;97735.81;6268857;28;20235;-72
2022/02/06 09:53:58;;;;;;;0.70;0.50;;;;;;;7.29;41.35;97713.34;6253639;28;20234;-72
2022/02/06 09:57:13;;;;;;;0.97;0.50;;;;;;;7.15;40.96;97705.56;6254228;28;20261;-72
2022/02/06 10:00:29;;;;;;;1.73;0.43;;;;;;;7.13;40.61;97693.47;6252198;28;20604;-73
2022/02/06 10:03:51;;;;;;;1.00;0.50;;;;;;;7.09;39.48;97690.22;6254284;28;20227;-72
2022/02/06 10:07:12;;;;;;;1.30;0.50;;;;;;;7.07;38.02;97673.75;6255831;28;20707;-74
2022/02/06 10:10:23;;;;;;;0.60;0.40;;;;;;;7.13;38.50;97668.09;6259601;28;20772;-72
2022/02/06 10:13:50;;;;;;;1.63;0.50;;;;;;;7.34;40.42;97647.44;6230667;28;20232;-72
2022/02/06 10:16:53;;;;;;;1.07;0.40;;;;;;;7.33;39.15;97643.97;6249266;28;20364;-72
2022/02/06 10:19:59;;;;;;;1.87;0.50;;;;;;;7.42;37.37;97629.38;6268537;28;20235;-74
2022/02/06 10:23:08;;;;;;;1.83;0.40;;;;;;;7.44;38.72;97622.22;6253851;28;20285;-72
2022/02/06 10:26:45;;;;;;;0.60;0.40;;;;;;;7.43;36.23;97612.66;6247682;28;20325;-73
2022/02/06 10:29:57;;;;;;;0.97;0.30;;;;;;;7.55;37.51;97619.72;6176228;28;20721;-73
2022/02/06 10:32:59;;;;;;;1.73;0.60;;;;;;;7.55;36.68;97624.13;6173739;28;20237;-73
2022/02/06 10:36:01;;;;;;;0.87;0.53;;;;;;;7.55;37.03;97619.72;6164932;28;20242;-72
2022/02/06 10:39:06;;;;;;;0.90;0.33;;;;;;;7.65;38.27;97635.66;6169812;28;20356;-72
2022/02/06 10:42:22;;;;;;;0.40;0.40;;;;;;;7.74;35.63;97606.97;6177018;28;20331;-73
2022/02/06 10:45:25;;;;;;;1.90;0.30;;;;;;;7.90;35.50;97601.47;6160315;28;20230;-72
2022/02/06 10:48:27;;;;;;;0.30;0.30;;;;;;;8.02;35.24;97591.88;6159654;28;20245;-73
2022/02/06 10:51:41;;;;;;;1.27;0.40;;;;;;;8.19;35.22;97585.41;6175184;28;20616;-72
2022/02/06 10:54:43;;;;;;;0.57;0.30;;;;;;;8.26;35.86;97591.91;6160083;28;20334;-72
2022/02/06 10:57:59;;;;;;;1.90;0.40;;;;;;;8.37;34.42;97579.72;6175724;28;20242;-72
2022/02/06 11:01:21;;;;;;;0.30;0.30;;;;;;;8.67;34.35;97583.66;6175755;28;20245;-72
2022/02/06 11:04:31;;;;;;;0.93;0.53;;;;;;;8.94;33.28;97578.13;6175701;28;20841;-73
2022/02/06 11:07:34;;;;;;;0.50;0.23;;;;;;;8.99;31.32;97558.38;6252818;28;20328;-73
2022/02/06 11:10:43;;;;;;;0.67;0.33;;;;;;;8.89;30.72;97558.25;6255841;28;20587;-73
2022/02/06 11:13:45;;;;;;;0.57;0.30;;;;;;;8.96;32.13;97560.44;6251539;28;20333;-72
2022/02/06 11:16:49;;;;;;;1.07;0.30;;;;;;;9.01;30.88;97537.22;6252231;28;20240;-72
2022/02/06 11:20:08;;;;;;;1.03;0.43;;;;;;;9.49;32.29;97549.22;6252294;28;20227;-72
2022/02/06 11:23:10;;;;;;;0.70;0.40;;;;;;;9.95;30.72;97508.72;6252284;28;20242;-72
2022/02/06 11:26:13;;;;;;;0.93;0.50;;;;;;;10.37;31.17;97498.31;6252773;28;20242;-72
2022/02/06 11:29:16;;;;;;;1.57;0.30;;;;;;;10.57;29.27;97481.66;6251807;28;20214;-72
2022/02/06 11:32:19;;;;;;;0.37;0.30;;;;;;;10.54;28.92;97500.38;6252835;28;20223;-73
2022/02/06 11:35:26;;;;;;;0.40;0.30;;;;;;;10.43;27.64;97477.53;6251742;28;20233;-73
2022/02/06 11:45:48;;;;;;;0.53;0.50;;;;;;;11.01;27.31;97441.75;6233848;28;20608;-73
2022/02/06 11:48:57;;;;;;;0.20;0.20;;;;;;;11.18;26.57;97423.66;6258590;28;20275;-74
2022/02/06 11:51:59;;;;;;;0.30;0.30;;;;;;;11.48;27.32;97432.34;6275572;28;20240;-73
2022/02/06 11:55:02;;;;;;;1.73;0.30;;;;;;;11.72;26.44;97420.59;6277946;28;20316;-73
2022/02/06 11:58:26;;;;;;;0.37;0.37;;;;;;;12.06;25.93;97399.91;6257932;28;20242;-72
2022/02/06 12:01:31;;;;;;;0.20;0.20;;;;;;;12.40;25.82;97368.53;6258781;28;20237;-72
2022/02/06 12:04:33;;;;;;;0.83;0.40;;;;;;;12.26;24.66;97374.28;6241820;28;20247;-71
2022/02/06 12:07:55;;;;;;;0.30;0.30;;;;;;;12.46;23.57;97370.63;6257369;28;20325;-73
2022/02/06 12:11:00;;;;;;;0.53;0.40;;;;;;;12.21;24.25;97358.81;6275785;28;20728;-73
2022/02/06 12:14:29;;;;;;;0.43;0.40;;;;;;;12.18;24.67;97361.75;6275514;28;20712;-72
2022/02/06 12:20:48;;;;;;;0.57;0.50;;;;;;;11.94;27.72;97356.91;6275575;28;20626;-72
2022/02/06 12:23:57;;;;;;;0.47;0.40;;;;;;;11.84;27.66;97337.56;6260930;28;20332;-73
2022/02/06 12:27:19;;;;;;;1.27;0.80;;;;;;;11.94;26.70;97337.56;6258696;28;20233;-73
2022/02/06 12:30:26;;;;;;;0.93;0.60;;;;;;;11.83;27.46;97322.66;6256211;28;20230;-73
2022/02/06 12:40:14;;;;;;;2.37;1.10;;;;;;;11.15;28.18;97303.25;6281090;28;20624;-72
2022/02/06 12:43:18;;;;;;;1.70;0.97;;;;;;;11.20;29.34;97295.72;6258254;28;20383;-73
2022/02/06 12:46:23;;;;;;;2.00;0.60;;;;;;;11.00;28.37;97297.50;6276470;28;20511;-72
2022/02/06 12:49:30;;;;;;;1.60;0.77;;;;;;;11.04;29.48;97282.22;6275866;28;20237;-73
2022/02/06 12:52:36;;;;;;;1.43;0.90;;;;;;;10.85;29.36;97283.03;6276993;28;20242;-73
2022/02/06 12:55:38;;;;;;;1.40;1.13;;;;;;;10.84;29.40;97285.78;6274761;28;20294;-74
2022/02/06 12:58:48;;;;;;;1.63;1.03;;;;;;;10.82;29.76;97296.47;6274532;28;20758;-74
2022/02/06 13:01:53;;;;;;;1.40;1.20;;;;;;;10.66;29.52;97306.72;6274458;28;20615;-72
2022/02/06 13:05:07;;;;;;;3.23;1.00;;;;;;;10.48;29.61;97289.84;6259193;28;20226;-73
2022/02/06 13:08:09;;;;;;;1.47;1.07;;;;;;;10.31;29.98;97268.34;6257548;28;20226;-73
2022/02/06 13:11:23;;;;;;;0.97;0.80;;;;;;;10.24;31.14;97263.75;6273555;28;20231;-73
2022/02/06 13:15:08;;;;;;;1.07;0.90;;;;;;;10.24;30.51;97259.31;6277001;28;20239;-73
2022/02/06 13:21:19;;;;;;;1.17;0.80;;;;;;;10.06;29.79;97255.56;6277971;28;20235;-73
2022/02/06 13:31:24;;;;;;;1.43;1.03;;;;;;;9.84;30.78;97242.53;6279769;28;20272;-73
2022/02/06 13:37:44;;;;;;;2.00;1.10;;;;;;;10.02;31.02;97235.69;6275377;28;20247;-72
2022/02/06 13:40:49;;;;;;;3.53;0.87;;;;;;;9.92;30.68;97232.19;6261566;28;20569;-73
2022/02/06 13:43:55;;;;;;;1.40;1.00;;;;;;;9.85;31.32;97223.97;6243891;28;20241;-71
2022/02/06 13:46:59;;;;;;;1.00;0.90;;;;;;;9.82;31.42;97197.84;6279864;28;20230;-72
2022/02/06 13:50:06;;;;;;;2.50;1.13;;;;;;;9.72;31.22;97225.13;6243884;28;20246;-72
2022/02/06 13:53:14;;;;;;;1.10;1.00;;;;;;;9.47;30.76;97207.91;6279726;28;20233;-73
2022/02/06 13:56:17;;;;;;;0.93;0.90;;;;;;;9.19;32.37;97212.81;6260124;28;20233;-71
2022/02/06 13:59:22;;;;;;;2.63;1.27;;;;;;;9.10;33.32;97196.94;6280145;28;20273;-72
2022/02/06 14:02:24;;;;;;;1.40;0.90;;;;;;;9.07;32.56;97190.13;6278759;28;20287;-71
2022/02/06 14:05:28;;;;;;;2.90;1.07;;;;;;;9.11;33.45;97188.06;6261186;28;20234;-72
2022/02/06 14:08:34;;;;;;;2.00;1.20;;;;;;;9.13;34.80;97179.09;6278243;28;20233;-72
2022/02/06 14:11:36;;;;;;;1.47;1.00;;;;;;;9.00;34.50;97185.47;6276118;28;20225;-73
2022/02/06 14:14:53;;;;;;;1.20;1.10;;;;;;;8.94;35.54;97176.31;6260623;28;20249;-73
2022/02/06 14:18:07;;;;;;;2.20;1.07;;;;;;;8.82;37.41;97178.13;6259982;28;20253;-72
2022/02/06 14:21:09;;;;;;;2.03;1.00;;;;;;;8.71;38.20;97175.53;6260045;28;20211;-71
2022/02/06 14:24:11;;;;;;;1.10;0.90;;;;;;;8.57;37.76;97152.16;6277803;28;20540;-71
2022/02/06 14:27:36;;;;;;;1.47;0.80;;;;;;;8.36;37.96;97161.75;6278742;28;20554;-71
2022/02/06 14:30:46;;;;;;;1.60;0.80;;;;;;;8.26;38.65;97148.47;6274842;28;20321;-69
2022/02/06 14:34:22;;;;;;;1.80;0.90;;;;;;;8.24;36.74;97147.75;6276322;28;20648;-70
2022/02/06 14:37:56;;;;;;;1.20;0.80;;;;;;;8.22;36.70;97120.75;6277485;28;20234;-72
2022/02/06 14:44:47;;;;;;;0.50;0.50;;;;;;;8.21;34.51;97111.19;6277776;28;20665;-69
2022/02/06 14:47:56;;;;;;;0.87;0.70;;;;;;;8.07;37.50;97116.72;6276848;28;20234;-70
2022/02/06 14:51:06;;;;;;;0.73;0.47;;;;;;;8.05;35.21;97080.06;6258676;28;20233;-71
2022/02/06 14:54:20;;;;;;;0.70;0.37;;;;;;;8.24;33.17;97096.97;6258808;28;20582;-69
2022/02/06 14:57:34;;;;;;;0.77;0.40;;;;;;;8.45;31.69;97087.41;6257058;28;20240;-72
2022/02/06 15:00:49;;;;;;;0.83;0.63;;;;;;;8.57;30.81;97080.31;6260175;28;20223;-71
2022/02/06 15:04:01;;;;;;;0.63;0.40;;;;;;;8.64;31.38;97079.69;6242933;28;20234;-71
2022/02/06 15:07:10;;;;;;;0.37;0.30;;;;;;;8.77;30.76;97072.44;6276971;28;20757;-70
2022/02/06 15:10:19;;;;;;;0.23;0.20;;;;;;;8.84;30.14;97076.22;6281672;28;20233;-70
2022/02/06 15:13:33;;;;;;;0.73;0.23;;;;;;;8.88;31.01;97066.31;6278087;28;20256;-71
2022/02/06 15:16:44;;;;;;;0.30;0.30;;;;;;;9.02;29.62;97051.97;6259736;28;20223;-70
2022/02/06 15:19:56;;;;;;;0.30;0.30;;;;;;;9.11;29.98;97038.88;6259896;28;20310;-73
2022/02/06 15:23:08;;;;;;;0.33;0.30;;;;;;;9.11;29.54;97038.03;6276919;28;20230;-68
2022/02/06 15:26:22;;;;;;;0.30;0.30;;;;;;;9.13;29.34;97041.38;6233913;28;20227;-67
2022/02/06 15:29:33;;;;;;;0.30;0.30;;;;;;;9.12;29.99;97037.06;6275935;28;20714;-67
2022/02/06 15:32:47;;;;;;;0.70;0.40;;;;;;;9.09;30.04;97025.00;6258558;28;20226;-68
2022/02/06 15:35:57;;;;;;;0.50;0.30;;;;;;;9.04;29.87;97019.31;6275616;28;20235;-68
2022/02/06 15:39:34;;;;;;;2.03;0.30;;;;;;;8.93;30.12;97018.53;6276616;28;20594;-68
2022/02/06 15:42:36;;;;;;;0.40;0.30;;;;;;;8.85;30.10;97017.38;6269959;28;20237;-69
2022/02/06 15:45:50;;;;;;;1.70;0.30;;;;;;;8.94;30.16;97012.31;6275761;28;20230;-67
2022/02/06 15:48:59;;;;;;;1.47;0.30;;;;;;;8.89;29.68;97010.88;6276537;28;20215;-69
2022/02/06 15:52:12;;;;;;;1.40;0.30;;;;;;;8.82;29.92;97007.13;6258820;28;20725;-72
2022/02/06 15:55:25;;;;;;;0.30;0.30;;;;;;;8.66;30.89;96990.97;6276420;28;20704;-72
2022/02/06 15:58:34;;;;;;;0.33;0.30;;;;;;;8.70;30.06;96981.81;6276109;28;20641;-72
2022/02/06 17:59:21;;;;;;;0.87;0.40;;;;;;;7.47;33.62;96805.53;6098978;27;4998404;-73
2022/02/06 18:02:47;;;;;;;0.90;0.60;;;;;;;7.58;33.34;96812.53;6231398;28;20223;-72
2022/02/06 18:05:57;;;;;;;0.30;0.30;;;;;;;7.83;32.63;96800.81;6251053;28;20701;-70
2022/02/06 18:09:12;;;;;;;0.43;0.33;;;;;;;7.86;32.82;96790.06;6246892;28;20578;-71
2022/02/06 18:12:20;;;;;;;0.50;0.50;;;;;;;7.85;33.51;96789.22;6223439;28;20219;-72
2022/02/06 18:15:29;;;;;;;0.30;0.30;;;;;;;7.80;33.46;96780.88;6245939;28;20231;-73
2022/02/06 18:18:42;;;;;;;0.53;0.40;;;;;;;7.71;34.50;96786.91;6246271;28;20262;-72
2022/02/06 18:21:53;;;;;;;1.60;0.57;;;;;;;7.67;33.77;96788.13;6245352;28;20252;-72
2022/02/06 18:25:08;;;;;;;0.60;0.50;;;;;;;7.78;33.64;96790.72;6246934;28;20238;-72
2022/02/06 18:28:15;;;;;;;0.37;0.33;;;;;;;7.86;32.97;96779.56;6247023;28;20234;-72
2022/02/06 18:31:23;;;;;;;1.03;0.50;;;;;;;7.86;33.25;96777.75;6232498;28;20360;-72
2022/02/06 18:34:34;;;;;;;1.23;0.50;;;;;;;7.82;34.40;96773.72;6234227;28;20244;-74
2022/02/06 18:37:44;;;;;;;0.67;0.50;;;;;;;7.76;34.03;96774.22;6220517;28;20234;-73
2022/02/06 18:40:54;;;;;;;1.30;0.40;;;;;;;7.66;35.29;96768.09;6219389;28;20240;-71
2022/02/06 18:44:05;;;;;;;1.23;0.50;;;;;;;7.63;35.39;96771.78;6222488;28;20721;-72
2022/02/06 18:47:12;;;;;;;0.53;0.50;;;;;;;7.64;34.92;96757.69;6222105;28;20224;-73
2022/02/06 18:50:16;;;;;;;2.07;0.50;;;;;;;7.70;34.72;96741.41;6221059;28;20235;-72
2022/02/06 18:53:23;;;;;;;1.13;0.50;;;;;;;7.72;35.50;96755.25;6222407;28;20243;-73
2022/02/06 18:56:35;;;;;;;0.83;0.60;;;;;;;7.69;36.50;96744.16;6173685;28;20229;-74
2022/02/06 18:59:45;;;;;;;0.40;0.40;;;;;;;7.74;37.72;96745.47;6217630;28;20732;-73
2022/02/06 19:02:54;;;;;;;0.80;0.50;;;;;;;7.75;38.05;96735.78;6221261;28;20833;-73
2022/02/06 19:06:04;;;;;;;1.00;0.40;;;;;;;7.69;38.41;96729.25;6219091;28;20231;-72
2022/02/06 19:09:21;;;;;;;0.60;0.50;;;;;;;7.62;40.30;96722.03;6196244;28;20709;-74
2022/02/06 19:12:35;;;;;;;2.67;0.53;;;;;;;7.68;40.06;96719.72;6181412;28;20240;-72
2022/02/06 19:15:41;;;;;;;0.40;0.40;;;;;;;7.66;40.38;96720.81;6179539;28;20226;-73
2022/02/06 19:18:52;;;;;;;0.63;0.40;;;;;;;7.57;41.14;96730.31;6180519;28;20242;-73
2022/02/06 19:22:03;;;;;;;1.83;0.50;;;;;;;7.53;41.46;96731.50;6181880;28;20233;-73
2022/02/06 19:25:15;;;;;;;0.83;0.70;;;;;;;7.48;41.70;96740.72;6180635;28;20227;-72
2022/02/06 19:28:31;;;;;;;0.80;0.50;;;;;;;7.45;42.77;96719.97;6187065;28;20229;-72
2022/02/06 19:31:40;;;;;;;0.67;0.50;;;;;;;7.46;43.05;96721.66;6204222;28;20233;-71
2022/02/06 19:34:58;;;;;;;1.60;0.67;;;;;;;7.40;43.74;96723.81;6205964;28;20321;-72